createdAt,value
2023-04-28T00:01:35.223Z,79.58
2023-04-28T00:04:02.483Z,80.73
2023-04-28T00:06:29.512Z,79.38
2023-04-28T00:08:58.984Z,78.97
2023-04-28T00:11:26.921Z,80.20
2023-04-28T00:13:53.756Z,80.53
2023-04-28T00:16:20.664Z,81.06
2023-04-28T00:18:47.469Z,80.99
2023-04-28T00:21:14.275Z,80.76
2023-04-28T00:23:41.242Z,81.34
2023-04-28T00:26:08.095Z,79.72
2023-04-28T00:28:35.174Z,80.31
2023-04-28T00:31:02.679Z,80.25
2023-04-28T00:33:29.522Z,79.95
2023-04-28T00:36:00.682Z,79.55
2023-04-28T00:38:27.659Z,80.25
2023-04-28T00:40:54.522Z,79.05
2023-04-28T00:43:21.505Z,78.92
2023-04-28T00:45:53.170Z,79.48
2023-04-28T00:48:20.338Z,80.51
2023-04-28T00:50:48.592Z,80.59
2023-04-28T00:53:15.506Z,80.87
2023-04-28T00:55:42.488Z,80.98
2023-04-28T00:58:09.855Z,80.51
2023-04-28T01:00:36.823Z,79.88
2023-04-28T01:03:03.852Z,78.79
2023-04-28T01:05:31.532Z,78.94
2023-04-28T01:07:58.553Z,79.32
2023-04-28T01:10:25.383Z,78.61
2023-04-28T01:12:52.194Z,78.28
2023-04-28T01:15:20.510Z,78.77
2023-04-28T01:17:48.229Z,78.80
2023-04-28T01:20:15.600Z,79.85
2023-04-28T01:22:42.622Z,80.06
2023-04-28T01:25:09.600Z,80.05
2023-04-28T01:27:36.489Z,79.77
2023-04-28T01:30:03.644Z,80.51
2023-04-28T01:32:30.506Z,80.61
2023-04-28T01:34:57.313Z,80.67
2023-04-28T01:37:24.187Z,79.89
2023-04-28T01:39:50.994Z,78.58
2023-04-28T01:42:17.736Z,79.75
2023-04-28T01:44:44.587Z,80.51
2023-04-28T01:47:11.427Z,79.23
2023-04-28T01:49:38.232Z,79.64
2023-04-28T01:52:05.218Z,79.12
2023-04-28T01:54:32.080Z,78.98
2023-04-28T01:56:58.891Z,77.27
2023-04-28T01:59:25.706Z,76.44
2023-04-28T02:01:52.517Z,76.73
2023-04-28T02:04:19.733Z,75.92
2023-04-28T02:06:46.827Z,75.79
2023-04-28T02:09:13.850Z,75.86
2023-04-28T02:11:40.679Z,77.05
2023-04-28T02:14:07.636Z,77.23
2023-04-28T02:16:34.478Z,76.96
2023-04-28T02:19:01.426Z,78.15
2023-04-28T02:21:28.331Z,78.72
2023-04-28T02:23:55.118Z,78.97
2023-04-28T02:26:22.014Z,79.23
2023-04-28T02:28:49.118Z,78.70
2023-04-28T02:31:16.452Z,79.23
2023-04-28T02:33:43.640Z,78.56
2023-04-28T02:36:10.810Z,78.44
2023-04-28T02:38:37.633Z,78.18
2023-04-28T02:41:06.074Z,78.59
2023-04-28T02:43:33.349Z,77.94
2023-04-28T02:46:00.638Z,77.25
2023-04-28T02:48:28.233Z,77.64
2023-04-28T02:50:55.140Z,77.89
2023-04-28T02:53:22.728Z,77.12
2023-04-28T02:55:49.827Z,76.87
2023-04-28T02:58:16.774Z,76.98
2023-04-28T03:00:43.641Z,78.00
2023-04-28T03:03:10.788Z,77.93
2023-04-28T03:05:37.819Z,77.01
2023-04-28T03:08:04.983Z,76.62
2023-04-28T03:10:31.820Z,77.86
2023-04-28T03:12:58.826Z,77.46
2023-04-28T03:15:25.658Z,77.28
2023-04-28T03:17:52.470Z,76.80
2023-04-28T03:20:19.452Z,77.51
2023-04-28T03:22:46.263Z,77.33
2023-04-28T03:25:13.091Z,78.13
2023-04-28T03:27:40.042Z,78.01
2023-04-28T03:30:07.351Z,78.93
2023-04-28T03:32:34.298Z,78.07
2023-04-28T03:35:01.321Z,79.06
2023-04-28T03:37:28.097Z,79.75
2023-04-28T03:39:54.889Z,79.35
2023-04-28T03:42:21.767Z,79.07
2023-04-28T03:44:48.553Z,78.25
2023-04-28T03:47:15.381Z,78.35
2023-04-28T03:49:42.246Z,78.23
2023-04-28T03:52:09.090Z,77.94
2023-04-28T03:54:35.944Z,78.74
2023-04-28T03:57:03.411Z,78.27
2023-04-28T03:59:35.291Z,79.21
2023-04-28T04:02:02.095Z,78.52
2023-04-28T04:04:29.136Z,78.26
2023-04-28T04:06:56.138Z,76.88
2023-04-28T04:09:23.039Z,77.29
2023-04-28T04:11:49.941Z,77.52
2023-04-28T04:14:16.976Z,77.16
2023-04-28T04:16:44.084Z,76.20
2023-04-28T04:19:10.903Z,76.75
2023-04-28T04:21:37.691Z,75.86
2023-04-28T04:24:04.714Z,76.54
2023-04-28T04:26:31.632Z,77.50
2023-04-28T04:28:58.472Z,76.70
2023-04-28T04:31:25.353Z,76.59
2023-04-28T04:33:52.235Z,76.34
2023-04-28T04:36:19.167Z,77.16
2023-04-28T04:38:45.962Z,75.75
2023-04-28T04:41:12.921Z,76.33
2023-04-28T04:43:39.694Z,76.23
2023-04-28T04:46:06.546Z,76.33
2023-04-28T04:48:33.457Z,76.89
2023-04-28T04:51:00.205Z,75.55
2023-04-28T04:53:27.031Z,75.41
2023-04-28T04:55:54.211Z,75.91
2023-04-28T04:58:21.153Z,75.99
2023-04-28T05:00:47.902Z,74.60
2023-04-28T05:03:14.994Z,75.19
2023-04-28T05:05:42.335Z,74.07
2023-04-28T05:08:20.886Z,75.36
2023-04-28T05:10:47.735Z,75.79
2023-04-28T05:13:14.492Z,74.42
2023-04-28T05:15:41.556Z,74.75
2023-04-28T05:18:08.499Z,74.29
2023-04-28T05:20:35.385Z,73.21
2023-04-28T05:23:02.354Z,72.96
2023-04-28T05:25:29.188Z,73.18
2023-04-28T05:27:56.508Z,72.63
2023-04-28T05:30:23.438Z,74.04
2023-04-28T05:32:50.402Z,72.88
2023-04-28T05:35:17.855Z,72.85
2023-04-28T05:37:44.871Z,73.05
2023-04-28T05:40:11.839Z,73.09
2023-04-28T05:42:38.721Z,72.24
2023-04-28T05:45:06.873Z,72.22
2023-04-28T05:47:33.883Z,72.03
2023-04-28T05:50:00.694Z,73.45
2023-04-28T05:52:39.617Z,72.58
2023-04-28T05:55:06.993Z,72.82
2023-04-28T05:57:42.120Z,72.28
2023-04-28T06:00:19.985Z,71.90
2023-04-28T06:02:47.226Z,72.99
2023-04-28T06:05:18.738Z,72.62
2023-04-28T06:07:48.345Z,72.15
2023-04-28T06:10:16.918Z,73.13
2023-04-28T06:12:43.807Z,72.07
2023-04-28T06:15:11.306Z,72.20
2023-04-28T06:17:39.401Z,72.00
2023-04-28T06:20:07.275Z,73.01
2023-04-28T06:22:34.169Z,72.85
2023-04-28T06:25:01.003Z,71.57
2023-04-28T06:27:28.667Z,71.46
2023-04-28T06:29:56.092Z,70.46
2023-04-28T06:32:22.922Z,71.62
2023-04-28T06:35:20.847Z,69.98
2023-04-28T06:37:47.702Z,69.92
2023-04-28T06:40:14.820Z,70.53
2023-04-28T06:42:42.429Z,69.92
2023-04-28T06:45:09.718Z,70.02
2023-04-28T06:47:36.681Z,68.11
2023-04-28T06:50:04.324Z,68.53
2023-04-28T06:52:38.676Z,67.15
2023-04-28T06:55:08.217Z,70.21
2023-04-28T06:57:36.764Z,68.26
2023-04-28T07:00:09.887Z,70.46
2023-04-28T07:02:37.271Z,70.53
2023-04-28T07:05:04.585Z,69.18
2023-04-28T07:07:34.229Z,68.59
2023-04-28T07:10:01.210Z,68.07
2023-04-28T07:12:29.559Z,69.79
2023-04-28T07:14:59.636Z,67.90
2023-04-28T07:17:26.528Z,68.32
2023-04-28T07:19:53.352Z,68.00
2023-04-28T07:22:20.205Z,66.65
2023-04-28T07:24:47.095Z,66.15
2023-04-28T07:27:13.888Z,64.93
2023-04-28T07:29:42.709Z,64.42
2023-04-28T07:32:10.557Z,65.15
2023-04-28T07:34:37.850Z,63.29
2023-04-28T07:37:05.286Z,62.82
2023-04-28T07:39:34.748Z,62.52
2023-04-28T07:42:11.189Z,62.48
2023-04-28T07:45:02.943Z,63.74
2023-04-28T07:47:39.916Z,64.56
2023-04-28T07:50:07.477Z,66.54
2023-04-28T07:52:34.985Z,62.08
2023-04-28T07:55:08.246Z,63.14
2023-04-28T07:57:40.597Z,61.97
2023-04-28T08:00:08.249Z,62.41
2023-04-28T08:02:35.202Z,61.66
2023-04-28T08:05:02.425Z,61.83
2023-04-28T08:07:29.700Z,60.05
2023-04-28T08:09:56.698Z,61.20
2023-04-28T08:12:27.976Z,59.86
2023-04-28T08:14:54.843Z,59.50
2023-04-28T08:17:21.679Z,61.02
2023-04-28T08:19:49.515Z,61.58
2023-04-28T08:22:16.515Z,60.61
2023-04-28T08:24:46.101Z,62.73
2023-04-28T08:27:23.162Z,60.55
2023-04-28T08:29:49.903Z,63.19
2023-04-28T08:32:19.676Z,61.38
2023-04-28T08:34:51.160Z,62.15
2023-04-28T08:37:18.091Z,59.92
2023-04-28T08:39:51.203Z,59.17
2023-04-28T08:42:18.834Z,59.14
2023-04-28T08:44:46.725Z,59.84
2023-04-28T08:47:14.496Z,58.94
2023-04-28T08:49:41.877Z,59.12
2023-04-28T08:52:14.207Z,60.01
2023-04-28T08:54:41.172Z,60.34
2023-04-28T08:57:11.682Z,60.13
2023-04-28T08:59:41.670Z,59.84
2023-04-28T09:02:09.447Z,59.85
2023-04-28T09:04:41.205Z,59.02
2023-04-28T09:07:12.002Z,59.12
2023-04-28T09:09:39.419Z,59.22
2023-04-28T09:12:31.991Z,59.77
2023-04-28T09:15:12.410Z,59.01
2023-04-28T09:17:52.334Z,58.56
2023-04-28T09:20:23.002Z,59.43
2023-04-28T09:22:51.150Z,57.95
2023-04-28T09:25:29.671Z,59.63
2023-04-28T09:27:56.513Z,57.89
2023-04-28T09:30:39.126Z,57.82
2023-04-28T09:33:05.988Z,57.48
2023-04-28T09:35:45.792Z,58.07
2023-04-28T09:38:12.654Z,59.07
2023-04-28T09:40:59.385Z,58.66
2023-04-28T09:43:35.803Z,57.50
2023-04-28T09:46:05.004Z,58.53
2023-04-28T09:48:36.783Z,58.19
2023-04-28T09:51:05.867Z,57.44
2023-04-28T09:53:33.707Z,58.07
2023-04-28T09:56:03.731Z,57.50
2023-04-28T09:58:32.134Z,55.97
2023-04-28T10:01:00.894Z,56.55
2023-04-28T10:03:32.079Z,58.32
2023-04-28T10:06:00.214Z,58.18
2023-04-28T10:08:31.014Z,60.09
2023-04-28T10:11:00.233Z,59.42
2023-04-28T10:13:27.196Z,61.00
2023-04-28T10:16:08.438Z,58.54
2023-04-28T10:18:36.779Z,59.10
2023-04-28T10:21:04.879Z,58.96
2023-04-28T10:24:03.959Z,58.17
2023-04-28T10:27:02.872Z,58.06
2023-04-28T10:29:31.387Z,58.31
2023-04-28T10:32:23.893Z,57.64
2023-04-28T10:34:51.218Z,57.47
2023-04-28T10:37:18.437Z,59.76
2023-04-28T10:40:23.062Z,59.82
2023-04-28T10:42:54.751Z,59.35
2023-04-28T10:46:00.779Z,58.38
2023-04-28T10:48:30.663Z,60.36
2023-04-28T10:51:11.032Z,60.41
2023-04-28T10:53:43.733Z,60.10
2023-04-28T10:56:11.145Z,60.71
2023-04-28T10:58:38.840Z,59.54
2023-04-28T11:01:31.194Z,59.49
2023-04-28T11:04:07.706Z,59.22
2023-04-28T11:06:39.501Z,59.04
2023-04-28T11:09:15.718Z,59.92
2023-04-28T11:11:54.990Z,60.15
2023-04-28T11:14:21.649Z,60.93
2023-04-28T11:16:56.182Z,59.92
2023-04-28T11:19:25.057Z,59.89
2023-04-28T11:21:53.805Z,59.41
2023-04-28T11:24:21.009Z,58.72
2023-04-28T11:26:48.207Z,59.96
2023-04-28T11:29:15.301Z,60.31
2023-04-28T11:31:50.608Z,59.40
2023-04-28T11:34:21.557Z,59.96
2023-04-28T11:36:48.388Z,58.91
2023-04-28T11:39:15.347Z,57.92
2023-04-28T11:41:45.652Z,58.90
2023-04-28T11:44:16.952Z,59.41
2023-04-28T11:46:51.192Z,57.65
2023-04-28T11:49:19.150Z,57.47
2023-04-28T11:51:45.976Z,57.79
2023-04-28T11:54:13.941Z,57.03
2023-04-28T11:56:42.707Z,56.39
2023-04-28T11:59:11.786Z,56.81
2023-04-28T12:01:53.304Z,56.60
2023-04-28T12:04:46.648Z,56.01
2023-04-28T12:07:19.412Z,56.21
2023-04-28T12:10:14.482Z,55.95
2023-04-28T12:12:50.638Z,56.35
2023-04-28T12:15:22.780Z,56.61
2023-04-28T12:17:50.340Z,55.63
2023-04-28T12:20:39.566Z,56.88
2023-04-28T12:23:06.961Z,54.98
2023-04-28T12:25:34.021Z,55.24
2023-04-28T12:28:06.266Z,55.47
2023-04-28T12:30:35.089Z,56.84
2023-04-28T12:33:24.029Z,56.88
2023-04-28T12:36:02.821Z,54.76
2023-04-28T12:38:31.333Z,56.40
2023-04-28T12:40:58.929Z,58.32
2023-04-28T12:43:25.864Z,58.14
2023-04-28T12:46:03.958Z,57.68
2023-04-28T12:48:30.874Z,56.56
2023-04-28T12:50:59.531Z,55.61
2023-04-28T12:53:26.467Z,56.58
2023-04-28T12:55:56.242Z,57.74
2023-04-28T12:58:23.130Z,58.31
2023-04-28T13:00:52.275Z,57.72
2023-04-28T13:03:19.777Z,58.44
2023-04-28T13:05:49.470Z,58.34
2023-04-28T13:08:16.289Z,57.45
2023-04-28T13:10:43.248Z,57.34
2023-04-28T13:13:10.177Z,59.30
2023-04-28T13:15:38.777Z,58.80
2023-04-28T13:18:06.038Z,58.64
2023-04-28T13:20:35.659Z,57.22
2023-04-28T13:23:02.647Z,57.67
2023-04-28T13:25:30.328Z,57.63
2023-04-28T13:27:57.198Z,58.07
2023-04-28T13:30:24.120Z,56.77
2023-04-28T13:32:51.280Z,56.82
2023-04-28T13:35:18.253Z,57.71
2023-04-28T13:37:45.261Z,58.25
2023-04-28T13:40:12.690Z,59.14
2023-04-28T13:42:39.569Z,59.66
2023-04-28T13:45:06.732Z,58.72
2023-04-28T13:47:33.761Z,58.85
2023-04-28T13:50:00.711Z,59.71
2023-04-28T13:52:27.551Z,58.90
2023-04-28T13:54:54.511Z,58.77
2023-04-28T13:57:21.477Z,59.42
2023-04-28T13:59:48.385Z,59.63
2023-04-28T14:02:15.360Z,60.34
2023-04-28T14:04:42.379Z,58.85
2023-04-28T14:07:09.423Z,59.39
2023-04-28T14:09:36.493Z,59.47
2023-04-28T14:12:03.495Z,60.13
2023-04-28T14:14:30.330Z,58.65
2023-04-28T14:16:57.243Z,58.48
2023-04-28T14:19:24.490Z,59.51
2023-04-28T14:21:51.381Z,59.67
2023-04-28T14:24:18.367Z,59.49
2023-04-28T14:26:45.200Z,59.04
2023-04-28T14:29:12.344Z,58.39
2023-04-28T14:31:40.214Z,58.40
2023-04-28T14:34:09.909Z,58.65
2023-04-28T14:36:36.868Z,58.99
2023-04-28T14:39:04.244Z,59.13
2023-04-28T14:41:31.258Z,58.51
2023-04-28T14:43:58.179Z,59.16
2023-04-28T14:46:25.404Z,59.88
2023-04-28T14:48:52.652Z,59.55
2023-04-28T14:51:19.569Z,59.27
2023-04-28T14:53:46.444Z,59.35
2023-04-28T14:56:19.079Z,59.22
2023-04-28T14:58:47.659Z,58.97
2023-04-28T15:01:14.567Z,58.16
2023-04-28T15:03:41.729Z,58.35
2023-04-28T15:06:08.840Z,59.36
2023-04-28T15:08:35.783Z,59.92
2023-04-28T15:11:02.737Z,60.70
2023-04-28T15:13:29.831Z,60.93
2023-04-28T15:15:56.703Z,61.75
2023-04-28T15:18:23.690Z,61.88
2023-04-28T15:20:51.414Z,62.09
2023-04-28T15:23:18.230Z,62.48
2023-04-28T15:25:45.052Z,62.60
2023-04-28T15:28:11.937Z,63.14
2023-04-28T15:30:41.724Z,62.84
2023-04-28T15:33:08.647Z,62.50
2023-04-28T15:35:36.031Z,62.58
2023-04-28T15:38:02.825Z,63.38
2023-04-28T15:40:29.622Z,63.15
2023-04-28T15:42:56.617Z,62.69
2023-04-28T15:45:23.493Z,63.04
2023-04-28T15:47:51.152Z,64.22
2023-04-28T15:50:19.706Z,64.04
2023-04-28T15:52:48.329Z,64.04
2023-04-28T15:55:16.770Z,64.95
2023-04-28T15:57:44.155Z,64.78
2023-04-28T16:00:11.860Z,65.23
2023-04-28T16:02:39.121Z,63.87
2023-04-28T16:05:06.779Z,64.17
2023-04-28T16:07:33.719Z,64.17
2023-04-28T16:10:00.583Z,64.64
2023-04-28T16:12:27.476Z,66.17
2023-04-28T16:14:54.307Z,66.25
2023-04-28T16:17:21.733Z,66.10
2023-04-28T16:19:50.115Z,64.76
2023-04-28T16:22:16.952Z,64.91
2023-04-28T16:24:43.837Z,65.05
2023-04-28T16:27:11.231Z,64.50
2023-04-28T16:29:38.065Z,66.07
2023-04-28T16:32:05.916Z,65.42
2023-04-28T16:34:33.186Z,64.76
2023-04-28T16:37:00.598Z,65.98
2023-04-28T16:39:27.713Z,65.87
2023-04-28T16:41:54.963Z,65.43
2023-04-28T16:44:22.020Z,64.68
2023-04-28T16:46:49.144Z,65.54
2023-04-28T16:49:16.270Z,65.81
2023-04-28T16:51:58.737Z,65.70
2023-04-28T16:54:26.732Z,65.88
2023-04-28T16:56:56.985Z,65.44
2023-04-28T16:59:24.148Z,65.51
2023-04-28T17:01:51.212Z,65.95
2023-04-28T17:04:18.212Z,64.88
2023-04-28T17:06:45.306Z,65.77
2023-04-28T17:10:06.153Z,64.95
2023-04-28T17:12:08.281Z,64.13
2023-04-28T17:14:40.933Z,64.79
2023-04-28T17:17:07.965Z,64.00
2023-04-28T17:19:39.087Z,64.29
2023-04-28T17:22:06.028Z,65.01
2023-04-28T17:24:35.802Z,64.44
2023-04-28T17:27:02.924Z,63.58
2023-04-28T17:29:29.866Z,62.78
2023-04-28T17:31:57.361Z,63.17
2023-04-28T17:34:24.914Z,63.36
2023-04-28T17:36:52.164Z,63.68
2023-04-28T17:39:19.118Z,64.20
2023-04-28T17:41:48.717Z,65.12
2023-04-28T17:44:15.832Z,64.69
2023-04-28T17:46:42.843Z,65.56
2023-04-28T17:49:12.162Z,65.78
2023-04-28T17:51:38.939Z,66.29
2023-04-28T17:54:06.330Z,66.27
2023-04-28T17:56:33.359Z,65.51
2023-04-28T17:59:00.564Z,65.86
2023-04-28T18:01:27.566Z,66.21
2023-04-28T18:03:54.888Z,65.63
2023-04-28T18:06:24.707Z,66.61
2023-04-28T18:08:52.005Z,66.68
2023-04-28T18:11:18.902Z,66.22
2023-04-28T18:13:47.934Z,66.65
2023-04-28T18:16:14.808Z,66.70
2023-04-28T18:18:42.355Z,66.73
2023-04-28T18:21:10.177Z,66.63
2023-04-28T18:23:37.104Z,66.14
2023-04-28T18:26:04.127Z,65.88
2023-04-28T18:28:30.965Z,65.83
2023-04-28T18:31:00.143Z,65.84
2023-04-28T18:33:27.304Z,65.92
2023-04-28T18:36:05.339Z,66.26
2023-04-28T18:38:32.663Z,65.75
2023-04-28T18:41:12.785Z,65.80
2023-04-28T18:43:43.513Z,66.15
2023-04-28T18:46:11.115Z,66.79
2023-04-28T18:48:38.082Z,67.30
2023-04-28T18:51:05.292Z,67.18
2023-04-28T18:53:32.689Z,67.05
2023-04-28T18:56:02.377Z,66.40
2023-04-28T18:58:29.955Z,67.08
2023-04-28T19:01:05.977Z,66.33
2023-04-28T19:03:32.952Z,66.52
2023-04-28T19:05:59.934Z,65.80
2023-04-28T19:08:26.937Z,65.78
2023-04-28T19:10:53.869Z,66.02
2023-04-28T19:13:20.637Z,65.11
2023-04-28T19:15:47.474Z,64.68
2023-04-28T19:18:14.502Z,65.09
2023-04-28T19:20:41.333Z,64.82
2023-04-28T19:23:08.188Z,64.35
2023-04-28T19:25:35.104Z,64.46
2023-04-28T19:28:01.941Z,64.39
2023-04-28T19:30:28.717Z,64.21
2023-04-28T19:32:58.811Z,64.06
2023-04-28T19:35:28.604Z,64.07
2023-04-28T19:37:58.550Z,63.93
2023-04-28T19:40:25.390Z,63.98
2023-04-28T19:42:52.238Z,65.26
2023-04-28T19:45:19.381Z,65.33
2023-04-28T19:47:46.285Z,64.59
2023-04-28T19:50:13.306Z,64.59
2023-04-28T19:52:40.358Z,64.94
2023-04-28T19:55:07.808Z,65.20
2023-04-28T19:57:34.660Z,64.67
2023-04-28T20:00:01.934Z,65.18
2023-04-28T20:02:28.982Z,64.41
2023-04-28T20:04:56.109Z,64.33
2023-04-28T20:07:23.371Z,64.34
2023-04-28T20:09:50.435Z,64.25
2023-04-28T20:12:17.358Z,64.20
2023-04-28T20:14:44.185Z,64.56
2023-04-28T20:17:10.995Z,63.93
2023-04-28T20:19:37.950Z,63.20
2023-04-28T20:22:20.084Z,63.81
2023-04-28T20:24:46.867Z,63.71
2023-04-28T20:27:13.881Z,63.94
2023-04-28T20:29:40.736Z,63.62
2023-04-28T20:32:07.704Z,63.65
2023-04-28T20:34:34.708Z,63.52
2023-04-28T20:37:01.650Z,63.94
2023-04-28T20:39:36.250Z,63.88
2023-04-28T20:42:03.148Z,63.90
2023-04-28T20:44:29.984Z,63.99
2023-04-28T20:46:57.302Z,64.19
2023-04-28T20:49:24.340Z,64.04
2023-04-28T20:51:51.203Z,64.56
2023-04-28T20:54:21.438Z,64.86
2023-04-28T20:56:48.369Z,64.98
2023-04-28T20:59:15.202Z,65.02
2023-04-28T21:01:42.257Z,65.14
2023-04-28T21:04:13.181Z,65.37
2023-04-28T21:06:42.010Z,65.13
2023-04-28T21:09:09.055Z,65.58
2023-04-28T21:11:36.062Z,65.57
2023-04-28T21:14:02.932Z,65.56
2023-04-28T21:16:29.926Z,65.47
2023-04-28T21:18:56.754Z,66.03
2023-04-28T21:21:23.576Z,66.63
2023-04-28T21:23:50.438Z,66.35
2023-04-28T21:26:17.342Z,66.29
2023-04-28T21:28:44.202Z,66.43
2023-04-28T21:31:11.335Z,66.15
2023-04-28T21:33:38.308Z,66.62
2023-04-28T21:36:06.840Z,66.80
2023-04-28T21:38:34.302Z,67.30
2023-04-28T21:41:01.154Z,67.53
2023-04-28T21:43:28.009Z,67.79
2023-04-28T21:45:54.821Z,68.31
2023-04-28T21:48:21.721Z,68.43
2023-04-28T21:50:48.660Z,68.46
2023-04-28T21:53:15.659Z,69.01
2023-04-28T21:55:44.058Z,69.28
2023-04-28T21:58:10.822Z,69.29
2023-04-28T22:00:42.472Z,68.90
2023-04-28T22:03:09.925Z,69.30
2023-04-28T22:05:37.102Z,69.14
2023-04-28T22:08:04.253Z,69.32
2023-04-28T22:10:33.289Z,69.49
2023-04-28T22:13:00.773Z,69.59
2023-04-28T22:15:27.881Z,68.99
2023-04-28T22:17:54.901Z,69.54
2023-04-28T22:20:21.807Z,69.72
2023-04-28T22:22:48.767Z,70.06
2023-04-28T22:25:15.618Z,69.94
2023-04-28T22:27:42.434Z,70.41
2023-04-28T22:30:09.794Z,70.57
2023-04-28T22:32:36.676Z,70.53
2023-04-28T22:35:03.587Z,70.79
2023-04-28T22:37:30.471Z,71.29
2023-04-28T22:39:57.324Z,71.27
2023-04-28T22:42:24.209Z,71.71
2023-04-28T22:44:51.035Z,72.09
2023-04-28T22:47:17.809Z,72.11
2023-04-28T22:49:44.595Z,72.74
2023-04-28T22:52:11.490Z,73.14
2023-04-28T22:54:38.336Z,72.99
2023-04-28T22:57:05.206Z,72.64
2023-04-28T22:59:33.410Z,73.09
2023-04-28T23:02:00.370Z,73.43
2023-04-28T23:04:27.494Z,73.28
2023-04-28T23:06:54.597Z,72.53
2023-04-28T23:09:21.451Z,73.07
2023-04-28T23:11:48.219Z,73.32
2023-04-28T23:14:15.127Z,73.71
2023-04-28T23:16:42.192Z,73.17
2023-04-28T23:19:09.141Z,73.11
2023-04-28T23:21:36.058Z,72.87
2023-04-28T23:24:02.841Z,73.07
2023-04-28T23:26:29.698Z,72.38
2023-04-28T23:28:57.039Z,72.16
2023-04-28T23:31:23.983Z,71.52
2023-04-28T23:33:50.817Z,71.32
2023-04-28T23:36:17.794Z,71.48
2023-04-28T23:38:44.646Z,71.12
2023-04-28T23:41:11.471Z,70.70
2023-04-28T23:43:38.329Z,70.50
2023-04-28T23:46:05.228Z,70.47
2023-04-28T23:48:32.091Z,70.33
2023-04-28T23:50:58.949Z,70.25
2023-04-28T23:53:25.806Z,70.15
2023-04-28T23:55:52.590Z,70.35
2023-04-28T23:58:19.434Z,70.02
